sensor_id;sensor_type;location;lat;lon;timestamp;P1;durP1;ratioP1;P2;durP2;ratioP2
20383;SDS011;46458;50.966;7.002;2022-10-14T00:00:08;13.43;;;9.00;;
20383;SDS011;46458;50.966;7.002;2022-10-14T00:02:42;13.03;;;9.07;;
20383;SDS011;46458;50.966;7.002;2022-10-14T00:05:11;12.43;;;10.20;;
20383;SDS011;46458;50.966;7.002;2022-10-14T00:07:40;14.33;;;9.53;;
20383;SDS011;46458;50.966;7.002;2022-10-14T00:10:18;16.67;;;9.90;;
20383;SDS011;46458;50.966;7.002;2022-10-14T00:12:46;11.80;;;9.60;;
20383;SDS011;46458;50.966;7.002;2022-10-14T00:15:17;13.43;;;9.73;;
20383;SDS011;46458;50.966;7.002;2022-10-14T00:17:48;13.97;;;10.40;;
20383;SDS011;46458;50.966;7.002;2022-10-14T00:20:17;12.37;;;9.20;;
20383;SDS011;46458;50.966;7.002;2022-10-14T00:22:47;13.43;;;10.30;;
20383;SDS011;46458;50.966;7.002;2022-10-14T00:25:16;16.90;;;9.47;;
20383;SDS011;46458;50.966;7.002;2022-10-14T00:27:45;12.87;;;10.07;;
20383;SDS011;46458;50.966;7.002;2022-10-14T00:30:14;16.00;;;10.37;;
20383;SDS011;46458;50.966;7.002;2022-10-14T00:32:43;12.70;;;9.33;;
20383;SDS011;46458;50.966;7.002;2022-10-14T00:35:14;15.57;;;10.10;;
20383;SDS011;46458;50.966;7.002;2022-10-14T00:37:43;14.17;;;9.67;;
20383;SDS011;46458;50.966;7.002;2022-10-14T00:40:12;15.10;;;9.83;;
20383;SDS011;46458;50.966;7.002;2022-10-14T00:42:41;15.27;;;10.33;;
20383;SDS011;46458;50.966;7.002;2022-10-14T00:45:13;15.63;;;9.37;;
20383;SDS011;46458;50.966;7.002;2022-10-14T00:47:45;13.63;;;9.80;;
20383;SDS011;46458;50.966;7.002;2022-10-14T00:50:19;14.73;;;9.70;;
20383;SDS011;46458;50.966;7.002;2022-10-14T00:52:50;14.03;;;9.63;;
20383;SDS011;46458;50.966;7.002;2022-10-14T00:55:20;15.00;;;9.60;;
20383;SDS011;46458;50.966;7.002;2022-10-14T00:57:49;14.13;;;9.90;;
20383;SDS011;46458;50.966;7.002;2022-10-14T01:00:18;14.53;;;9.73;;
20383;SDS011;46458;50.966;7.002;2022-10-14T01:02:47;12.80;;;9.60;;
20383;SDS011;46458;50.966;7.002;2022-10-14T01:05:18;13.57;;;9.80;;
20383;SDS011;46458;50.966;7.002;2022-10-14T01:07:51;18.33;;;10.60;;
20383;SDS011;46458;50.966;7.002;2022-10-14T01:10:31;16.87;;;10.00;;
20383;SDS011;46458;50.966;7.002;2022-10-14T01:13:10;13.73;;;9.57;;
20383;SDS011;46458;50.966;7.002;2022-10-14T01:15:49;15.40;;;10.00;;
20383;SDS011;46458;50.966;7.002;2022-10-14T01:18:32;14.23;;;9.47;;
20383;SDS011;46458;50.966;7.002;2022-10-14T01:21:17;15.43;;;10.10;;
20383;SDS011;46458;50.966;7.002;2022-10-14T01:29:56;13.83;;;9.03;;
20383;SDS011;46458;50.966;7.002;2022-10-14T01:32:36;12.90;;;9.33;;
20383;SDS011;46458;50.966;7.002;2022-10-14T01:35:15;11.93;;;9.07;;
20383;SDS011;46458;50.966;7.002;2022-10-14T01:37:52;14.63;;;9.30;;
20383;SDS011;46458;50.966;7.002;2022-10-14T01:40:27;13.10;;;8.67;;
20383;SDS011;46458;50.966;7.002;2022-10-14T01:43:00;19.53;;;10.10;;
20383;SDS011;46458;50.966;7.002;2022-10-14T01:45:35;15.57;;;9.43;;
20383;SDS011;46458;50.966;7.002;2022-10-14T01:48:10;14.67;;;8.23;;
20383;SDS011;46458;50.966;7.002;2022-10-14T01:50:44;13.03;;;9.23;;
20383;SDS011;46458;50.966;7.002;2022-10-14T01:53:17;15.00;;;9.60;;
20383;SDS011;46458;50.966;7.002;2022-10-14T01:55:49;12.80;;;8.80;;
20383;SDS011;46458;50.966;7.002;2022-10-14T01:58:22;12.40;;;8.83;;
20383;SDS011;46458;50.966;7.002;2022-10-14T02:00:56;11.80;;;8.57;;
20383;SDS011;46458;50.966;7.002;2022-10-14T02:03:36;12.93;;;8.73;;
20383;SDS011;46458;50.966;7.002;2022-10-14T02:06:07;10.90;;;8.13;;
20383;SDS011;46458;50.966;7.002;2022-10-14T02:08:44;10.53;;;8.07;;
20383;SDS011;46458;50.966;7.002;2022-10-14T02:11:23;13.53;;;8.80;;
20383;SDS011;46458;50.966;7.002;2022-10-14T02:13:59;11.67;;;8.50;;
20383;SDS011;46458;50.966;7.002;2022-10-14T02:16:47;12.40;;;8.47;;
20383;SDS011;46458;50.966;7.002;2022-10-14T02:19:24;11.77;;;7.93;;
20383;SDS011;46458;50.966;7.002;2022-10-14T02:21:58;11.27;;;8.00;;
20383;SDS011;46458;50.966;7.002;2022-10-14T02:24:48;10.00;;;7.43;;
20383;SDS011;46458;50.966;7.002;2022-10-14T02:27:20;12.00;;;8.47;;
20383;SDS011;46458;50.966;7.002;2022-10-14T02:29:53;13.33;;;8.70;;
20383;SDS011;46458;50.966;7.002;2022-10-14T02:32:27;11.90;;;8.47;;
20383;SDS011;46458;50.966;7.002;2022-10-14T02:34:57;11.00;;;8.37;;
20383;SDS011;46458;50.966;7.002;2022-10-14T02:37:28;12.83;;;7.97;;
20383;SDS011;46458;50.966;7.002;2022-10-14T02:39:59;12.13;;;8.23;;
20383;SDS011;46458;50.966;7.002;2022-10-14T02:42:34;12.23;;;7.93;;
20383;SDS011;46458;50.966;7.002;2022-10-14T02:45:03;10.77;;;7.83;;
20383;SDS011;46458;50.966;7.002;2022-10-14T02:47:36;10.10;;;7.37;;
20383;SDS011;46458;50.966;7.002;2022-10-14T02:50:06;11.10;;;7.60;;
20383;SDS011;46458;50.966;7.002;2022-10-14T02:52:36;9.07;;;6.93;;
20383;SDS011;46458;50.966;7.002;2022-10-14T02:55:05;11.10;;;7.20;;
20383;SDS011;46458;50.966;7.002;2022-10-14T02:57:36;9.17;;;7.03;;
20383;SDS011;46458;50.966;7.002;2022-10-14T03:00:06;8.67;;;7.17;;
20383;SDS011;46458;50.966;7.002;2022-10-14T03:02:45;10.87;;;7.47;;
20383;SDS011;46458;50.966;7.002;2022-10-14T03:05:16;11.07;;;7.30;;
20383;SDS011;46458;50.966;7.002;2022-10-14T03:07:46;9.00;;;6.77;;
20383;SDS011;46458;50.966;7.002;2022-10-14T03:10:17;7.97;;;6.67;;
20383;SDS011;46458;50.966;7.002;2022-10-14T03:12:46;9.47;;;7.77;;
20383;SDS011;46458;50.966;7.002;2022-10-14T03:15:24;11.93;;;7.20;;
20383;SDS011;46458;50.966;7.002;2022-10-14T03:17:56;9.60;;;7.60;;
20383;SDS011;46458;50.966;7.002;2022-10-14T03:20:37;9.23;;;7.10;;
20383;SDS011;46458;50.966;7.002;2022-10-14T03:23:07;8.80;;;7.20;;
20383;SDS011;46458;50.966;7.002;2022-10-14T03:25:40;10.53;;;7.27;;
20383;SDS011;46458;50.966;7.002;2022-10-14T03:28:19;12.13;;;7.40;;
20383;SDS011;46458;50.966;7.002;2022-10-14T03:30:54;13.50;;;7.27;;
20383;SDS011;46458;50.966;7.002;2022-10-14T03:33:42;8.67;;;7.00;;
20383;SDS011;46458;50.966;7.002;2022-10-14T03:36:12;8.07;;;6.83;;
20383;SDS011;46458;50.966;7.002;2022-10-14T03:38:49;9.93;;;6.97;;
20383;SDS011;46458;50.966;7.002;2022-10-14T03:41:33;10.87;;;7.20;;
20383;SDS011;46458;50.966;7.002;2022-10-14T03:44:03;10.83;;;8.17;;
20383;SDS011;46458;50.966;7.002;2022-10-14T03:46:37;10.00;;;6.77;;
20383;SDS011;46458;50.966;7.002;2022-10-14T03:49:08;9.33;;;6.17;;
20383;SDS011;46458;50.966;7.002;2022-10-14T03:51:38;10.27;;;7.03;;
20383;SDS011;46458;50.966;7.002;2022-10-14T03:54:15;10.07;;;7.33;;
20383;SDS011;46458;50.966;7.002;2022-10-14T03:56:44;7.83;;;6.80;;
20383;SDS011;46458;50.966;7.002;2022-10-14T03:59:15;9.00;;;7.10;;
20383;SDS011;46458;50.966;7.002;2022-10-14T04:01:48;11.60;;;7.20;;
20383;SDS011;46458;50.966;7.002;2022-10-14T04:04:23;9.00;;;6.97;;
20383;SDS011;46458;50.966;7.002;2022-10-14T04:06:54;10.30;;;6.50;;
20383;SDS011;46458;50.966;7.002;2022-10-14T04:09:23;9.60;;;7.27;;
20383;SDS011;46458;50.966;7.002;2022-10-14T04:11:53;9.13;;;7.13;;
20383;SDS011;46458;50.966;7.002;2022-10-14T04:14:36;8.90;;;6.80;;
20383;SDS011;46458;50.966;7.002;2022-10-14T04:17:07;10.03;;;6.87;;
20383;SDS011;46458;50.966;7.002;2022-10-14T04:19:39;10.27;;;6.90;;
20383;SDS011;46458;50.966;7.002;2022-10-14T04:22:08;10.13;;;7.13;;
20383;SDS011;46458;50.966;7.002;2022-10-14T04:24:47;9.03;;;7.20;;
20383;SDS011;46458;50.966;7.002;2022-10-14T04:27:22;7.57;;;6.53;;
20383;SDS011;46458;50.966;7.002;2022-10-14T04:30:00;9.77;;;6.80;;
20383;SDS011;46458;50.966;7.002;2022-10-14T04:32:39;9.97;;;6.63;;
20383;SDS011;46458;50.966;7.002;2022-10-14T04:35:12;8.70;;;7.00;;
20383;SDS011;46458;50.966;7.002;2022-10-14T04:37:44;9.70;;;7.00;;
20383;SDS011;46458;50.966;7.002;2022-10-14T04:40:21;10.03;;;7.00;;
20383;SDS011;46458;50.966;7.002;2022-10-14T04:42:55;9.90;;;6.83;;
20383;SDS011;46458;50.966;7.002;2022-10-14T04:45:32;10.13;;;6.60;;
20383;SDS011;46458;50.966;7.002;2022-10-14T04:48:02;8.30;;;5.90;;
20383;SDS011;46458;50.966;7.002;2022-10-14T04:50:39;10.33;;;6.97;;
20383;SDS011;46458;50.966;7.002;2022-10-14T04:53:43;8.37;;;5.97;;
20383;SDS011;46458;50.966;7.002;2022-10-14T04:56:27;11.07;;;6.63;;
20383;SDS011;46458;50.966;7.002;2022-10-14T04:59:00;8.37;;;6.90;;
20383;SDS011;46458;50.966;7.002;2022-10-14T05:01:49;12.43;;;7.00;;
20383;SDS011;46458;50.966;7.002;2022-10-14T05:04:19;11.60;;;7.17;;
20383;SDS011;46458;50.966;7.002;2022-10-14T05:06:52;10.63;;;7.40;;
20383;SDS011;46458;50.966;7.002;2022-10-14T05:09:22;11.90;;;7.77;;
20383;SDS011;46458;50.966;7.002;2022-10-14T05:11:51;14.63;;;7.47;;
20383;SDS011;46458;50.966;7.002;2022-10-14T05:14:32;11.90;;;7.00;;
20383;SDS011;46458;50.966;7.002;2022-10-14T05:17:17;10.77;;;7.17;;
20383;SDS011;46458;50.966;7.002;2022-10-14T05:19:46;9.70;;;7.10;;
20383;SDS011;46458;50.966;7.002;2022-10-14T05:22:20;10.00;;;7.07;;
20383;SDS011;46458;50.966;7.002;2022-10-14T05:24:49;9.83;;;6.77;;
20383;SDS011;46458;50.966;7.002;2022-10-14T05:27:19;11.57;;;6.67;;
20383;SDS011;46458;50.966;7.002;2022-10-14T05:29:50;10.73;;;7.00;;
20383;SDS011;46458;50.966;7.002;2022-10-14T05:32:21;9.87;;;6.60;;
20383;SDS011;46458;50.966;7.002;2022-10-14T05:34:57;10.23;;;7.07;;
20383;SDS011;46458;50.966;7.002;2022-10-14T05:37:36;9.90;;;6.73;;
20383;SDS011;46458;50.966;7.002;2022-10-14T05:40:06;8.90;;;7.17;;
20383;SDS011;46458;50.966;7.002;2022-10-14T05:42:37;7.13;;;6.00;;
20383;SDS011;46458;50.966;7.002;2022-10-14T05:45:06;7.90;;;6.53;;
20383;SDS011;46458;50.966;7.002;2022-10-14T05:47:42;8.07;;;6.50;;
20383;SDS011;46458;50.966;7.002;2022-10-14T05:50:15;7.77;;;6.13;;
20383;SDS011;46458;50.966;7.002;2022-10-14T05:52:48;8.07;;;6.03;;
20383;SDS011;46458;50.966;7.002;2022-10-14T05:55:27;7.60;;;5.70;;
20383;SDS011;46458;50.966;7.002;2022-10-14T05:58:00;10.57;;;6.30;;
20383;SDS011;46458;50.966;7.002;2022-10-14T06:00:36;9.23;;;6.20;;
20383;SDS011;46458;50.966;7.002;2022-10-14T06:03:10;7.17;;;5.43;;
20383;SDS011;46458;50.966;7.002;2022-10-14T06:05:39;6.43;;;5.43;;
20383;SDS011;46458;50.966;7.002;2022-10-14T06:08:11;8.67;;;5.40;;
20383;SDS011;46458;50.966;7.002;2022-10-14T06:10:40;7.60;;;5.67;;
20383;SDS011;46458;50.966;7.002;2022-10-14T06:13:09;8.47;;;5.07;;
20383;SDS011;46458;50.966;7.002;2022-10-14T06:15:40;7.00;;;5.03;;
20383;SDS011;46458;50.966;7.002;2022-10-14T06:18:09;6.30;;;5.10;;
20383;SDS011;46458;50.966;7.002;2022-10-14T06:20:41;8.20;;;5.10;;
20383;SDS011;46458;50.966;7.002;2022-10-14T06:23:12;6.20;;;4.77;;
20383;SDS011;46458;50.966;7.002;2022-10-14T06:25:41;7.00;;;5.60;;
20383;SDS011;46458;50.966;7.002;2022-10-14T06:28:10;7.23;;;5.40;;
20383;SDS011;46458;50.966;7.002;2022-10-14T06:30:39;5.70;;;5.10;;
20383;SDS011;46458;50.966;7.002;2022-10-14T06:33:07;7.83;;;5.40;;
20383;SDS011;46458;50.966;7.002;2022-10-14T06:35:36;8.23;;;5.30;;
20383;SDS011;46458;50.966;7.002;2022-10-14T06:38:08;7.90;;;5.77;;
20383;SDS011;46458;50.966;7.002;2022-10-14T06:40:40;7.97;;;5.33;;
20383;SDS011;46458;50.966;7.002;2022-10-14T06:43:10;8.53;;;5.40;;
20383;SDS011;46458;50.966;7.002;2022-10-14T06:45:39;7.57;;;5.37;;
20383;SDS011;46458;50.966;7.002;2022-10-14T06:48:07;7.33;;;5.57;;
20383;SDS011;46458;50.966;7.002;2022-10-14T06:50:39;7.10;;;5.70;;
20383;SDS011;46458;50.966;7.002;2022-10-14T06:53:08;7.23;;;6.00;;
20383;SDS011;46458;50.966;7.002;2022-10-14T06:55:39;6.20;;;5.40;;
20383;SDS011;46458;50.966;7.002;2022-10-14T06:58:08;7.37;;;6.43;;
20383;SDS011;46458;50.966;7.002;2022-10-14T07:00:37;6.43;;;5.53;;
20383;SDS011;46458;50.966;7.002;2022-10-14T07:03:06;7.60;;;5.83;;
20383;SDS011;46458;50.966;7.002;2022-10-14T07:05:38;10.63;;;6.33;;
20383;SDS011;46458;50.966;7.002;2022-10-14T07:08:06;7.40;;;6.07;;
20383;SDS011;46458;50.966;7.002;2022-10-14T07:10:35;8.47;;;6.17;;
20383;SDS011;46458;50.966;7.002;2022-10-14T07:13:07;7.73;;;5.70;;
20383;SDS011;46458;50.966;7.002;2022-10-14T07:15:36;9.10;;;6.03;;
20383;SDS011;46458;50.966;7.002;2022-10-14T07:18:05;9.63;;;6.37;;
20383;SDS011;46458;50.966;7.002;2022-10-14T07:20:35;8.90;;;6.40;;
20383;SDS011;46458;50.966;7.002;2022-10-14T07:23:04;7.50;;;6.40;;
20383;SDS011;46458;50.966;7.002;2022-10-14T07:25:32;7.07;;;5.67;;
20383;SDS011;46458;50.966;7.002;2022-10-14T07:28:07;8.57;;;6.70;;
20383;SDS011;46458;50.966;7.002;2022-10-14T07:30:36;8.23;;;6.43;;
20383;SDS011;46458;50.966;7.002;2022-10-14T07:33:04;8.10;;;6.33;;
20383;SDS011;46458;50.966;7.002;2022-10-14T07:35:33;6.60;;;5.40;;
20383;SDS011;46458;50.966;7.002;2022-10-14T07:38:04;7.23;;;5.80;;
20383;SDS011;46458;50.966;7.002;2022-10-14T07:40:34;9.87;;;6.57;;
20383;SDS011;46458;50.966;7.002;2022-10-14T07:43:02;8.87;;;6.10;;
20383;SDS011;46458;50.966;7.002;2022-10-14T07:45:38;9.00;;;6.53;;
20383;SDS011;46458;50.966;7.002;2022-10-14T07:48:08;11.37;;;7.17;;
20383;SDS011;46458;50.966;7.002;2022-10-14T07:50:37;10.83;;;5.83;;
20383;SDS011;46458;50.966;7.002;2022-10-14T07:53:06;7.30;;;5.40;;
20383;SDS011;46458;50.966;7.002;2022-10-14T07:55:34;9.03;;;5.27;;
20383;SDS011;46458;50.966;7.002;2022-10-14T07:58:03;6.50;;;5.70;;
20383;SDS011;46458;50.966;7.002;2022-10-14T08:00:35;9.53;;;5.70;;
20383;SDS011;46458;50.966;7.002;2022-10-14T08:03:04;7.37;;;5.57;;
20383;SDS011;46458;50.966;7.002;2022-10-14T08:05:33;6.73;;;5.40;;
20383;SDS011;46458;50.966;7.002;2022-10-14T08:08:02;8.30;;;5.60;;
20383;SDS011;46458;50.966;7.002;2022-10-14T08:10:31;8.30;;;5.93;;
20383;SDS011;46458;50.966;7.002;2022-10-14T08:13:00;7.77;;;5.27;;
20383;SDS011;46458;50.966;7.002;2022-10-14T08:15:31;11.20;;;5.40;;
20383;SDS011;46458;50.966;7.002;2022-10-14T08:18:08;12.33;;;6.40;;
20383;SDS011;46458;50.966;7.002;2022-10-14T08:20:37;8.87;;;6.30;;
20383;SDS011;46458;50.966;7.002;2022-10-14T08:23:06;8.03;;;6.37;;
20383;SDS011;46458;50.966;7.002;2022-10-14T08:25:36;6.83;;;5.17;;
20383;SDS011;46458;50.966;7.002;2022-10-14T08:28:07;7.27;;;5.70;;
20383;SDS011;46458;50.966;7.002;2022-10-14T08:30:38;7.30;;;5.27;;
20383;SDS011;46458;50.966;7.002;2022-10-14T08:33:07;6.27;;;5.47;;
20383;SDS011;46458;50.966;7.002;2022-10-14T08:35:37;8.00;;;5.40;;
20383;SDS011;46458;50.966;7.002;2022-10-14T08:38:06;7.83;;;5.60;;
20383;SDS011;46458;50.966;7.002;2022-10-14T08:40:41;10.27;;;5.50;;
20383;SDS011;46458;50.966;7.002;2022-10-14T08:43:29;7.50;;;5.80;;
20383;SDS011;46458;50.966;7.002;2022-10-14T08:46:05;9.03;;;5.83;;
20383;SDS011;46458;50.966;7.002;2022-10-14T08:48:44;8.37;;;6.23;;
20383;SDS011;46458;50.966;7.002;2022-10-14T08:51:15;7.97;;;5.70;;
20383;SDS011;46458;50.966;7.002;2022-10-14T08:53:47;7.60;;;5.77;;
20383;SDS011;46458;50.966;7.002;2022-10-14T08:56:20;8.40;;;6.40;;
20383;SDS011;46458;50.966;7.002;2022-10-14T08:58:51;11.97;;;6.77;;
20383;SDS011;46458;50.966;7.002;2022-10-14T09:01:25;7.87;;;5.67;;
20383;SDS011;46458;50.966;7.002;2022-10-14T09:03:57;7.10;;;5.57;;
20383;SDS011;46458;50.966;7.002;2022-10-14T09:06:28;10.90;;;7.90;;
20383;SDS011;46458;50.966;7.002;2022-10-14T09:08:59;7.80;;;5.77;;
20383;SDS011;46458;50.966;7.002;2022-10-14T09:11:33;9.63;;;5.60;;
20383;SDS011;46458;50.966;7.002;2022-10-14T09:14:07;8.60;;;6.00;;
20383;SDS011;46458;50.966;7.002;2022-10-14T09:16:42;8.10;;;6.33;;
20383;SDS011;46458;50.966;7.002;2022-10-14T09:19:14;9.43;;;5.63;;
20383;SDS011;46458;50.966;7.002;2022-10-14T09:21:50;7.57;;;5.30;;
20383;SDS011;46458;50.966;7.002;2022-10-14T09:24:24;10.53;;;5.93;;
20383;SDS011;46458;50.966;7.002;2022-10-14T09:26:55;8.53;;;6.03;;
20383;SDS011;46458;50.966;7.002;2022-10-14T09:29:26;9.00;;;6.23;;
20383;SDS011;46458;50.966;7.002;2022-10-14T09:32:00;7.80;;;5.60;;
20383;SDS011;46458;50.966;7.002;2022-10-14T09:34:32;6.30;;;5.30;;
20383;SDS011;46458;50.966;7.002;2022-10-14T09:39:53;8.03;;;5.80;;
20383;SDS011;46458;50.966;7.002;2022-10-14T09:42:25;7.27;;;5.47;;
20383;SDS011;46458;50.966;7.002;2022-10-14T09:45:08;8.90;;;5.47;;
20383;SDS011;46458;50.966;7.002;2022-10-14T09:47:43;6.63;;;5.23;;
20383;SDS011;46458;50.966;7.002;2022-10-14T09:50:20;8.80;;;5.40;;
20383;SDS011;46458;50.966;7.002;2022-10-14T09:52:52;7.47;;;5.37;;
20383;SDS011;46458;50.966;7.002;2022-10-14T09:55:25;6.93;;;5.77;;
20383;SDS011;46458;50.966;7.002;2022-10-14T09:57:57;7.50;;;5.33;;
20383;SDS011;46458;50.966;7.002;2022-10-14T10:00:31;9.03;;;5.83;;
20383;SDS011;46458;50.966;7.002;2022-10-14T10:03:05;7.63;;;5.70;;
20383;SDS011;46458;50.966;7.002;2022-10-14T10:05:35;7.27;;;5.17;;
20383;SDS011;46458;50.966;7.002;2022-10-14T10:08:06;9.90;;;5.82;;
20383;SDS011;46458;50.966;7.002;2022-10-14T10:10:55;7.57;;;5.40;;
20383;SDS011;46458;50.966;7.002;2022-10-14T10:13:30;10.03;;;5.80;;
20383;SDS011;46458;50.966;7.002;2022-10-14T10:16:06;8.73;;;5.80;;
20383;SDS011;46458;50.966;7.002;2022-10-14T10:18:48;9.70;;;5.77;;
20383;SDS011;46458;50.966;7.002;2022-10-14T10:21:22;7.27;;;5.03;;
20383;SDS011;46458;50.966;7.002;2022-10-14T10:23:55;11.13;;;6.30;;
20383;SDS011;46458;50.966;7.002;2022-10-14T10:26:28;8.47;;;5.73;;
20383;SDS011;46458;50.966;7.002;2022-10-14T10:28:59;9.37;;;6.03;;
20383;SDS011;46458;50.966;7.002;2022-10-14T10:31:31;9.90;;;6.20;;
20383;SDS011;46458;50.966;7.002;2022-10-14T10:34:35;10.77;;;7.10;;
20383;SDS011;46458;50.966;7.002;2022-10-14T10:37:21;13.07;;;7.20;;
20383;SDS011;46458;50.966;7.002;2022-10-14T10:40:07;11.27;;;7.20;;
20383;SDS011;46458;50.966;7.002;2022-10-14T10:42:50;11.27;;;6.97;;
20383;SDS011;46458;50.966;7.002;2022-10-14T10:45:40;11.07;;;6.83;;
20383;SDS011;46458;50.966;7.002;2022-10-14T10:48:24;9.13;;;6.77;;
20383;SDS011;46458;50.966;7.002;2022-10-14T10:51:03;13.10;;;7.10;;
20383;SDS011;46458;50.966;7.002;2022-10-14T10:53:44;10.37;;;7.70;;
20383;SDS011;46458;50.966;7.002;2022-10-14T10:56:24;9.97;;;7.83;;
20383;SDS011;46458;50.966;7.002;2022-10-14T10:59:12;14.87;;;7.20;;
20383;SDS011;46458;50.966;7.002;2022-10-14T11:02:03;13.73;;;7.47;;
20383;SDS011;46458;50.966;7.002;2022-10-14T11:04:57;9.38;;;7.13;;
20383;SDS011;46458;50.966;7.002;2022-10-14T11:07:36;11.17;;;7.50;;
20383;SDS011;46458;50.966;7.002;2022-10-14T11:10:28;11.03;;;7.60;;
20383;SDS011;46458;50.966;7.002;2022-10-14T11:13:18;9.17;;;6.83;;
20383;SDS011;46458;50.966;7.002;2022-10-14T11:15:51;9.10;;;7.07;;
20383;SDS011;46458;50.966;7.002;2022-10-14T11:18:28;11.63;;;7.00;;
20383;SDS011;46458;50.966;7.002;2022-10-14T11:21:10;12.40;;;7.90;;
20383;SDS011;46458;50.966;7.002;2022-10-14T11:23:53;9.30;;;7.13;;
20383;SDS011;46458;50.966;7.002;2022-10-14T11:26:34;10.57;;;8.23;;
20383;SDS011;46458;50.966;7.002;2022-10-14T11:29:28;9.90;;;7.73;;
20383;SDS011;46458;50.966;7.002;2022-10-14T11:32:13;12.87;;;8.70;;
20383;SDS011;46458;50.966;7.002;2022-10-14T11:34:51;11.43;;;8.60;;
20383;SDS011;46458;50.966;7.002;2022-10-14T11:37:39;13.17;;;8.07;;
20383;SDS011;46458;50.966;7.002;2022-10-14T11:40:22;13.37;;;9.40;;
20383;SDS011;46458;50.966;7.002;2022-10-14T11:43:02;14.23;;;8.60;;
20383;SDS011;46458;50.966;7.002;2022-10-14T11:45:41;15.40;;;9.90;;
20383;SDS011;46458;50.966;7.002;2022-10-14T11:48:18;11.83;;;9.07;;
20383;SDS011;46458;50.966;7.002;2022-10-14T11:50:54;15.03;;;9.90;;
20383;SDS011;46458;50.966;7.002;2022-10-14T11:53:31;11.67;;;8.60;;
20383;SDS011;46458;50.966;7.002;2022-10-14T11:59:22;13.70;;;8.90;;
20383;SDS011;46458;50.966;7.002;2022-10-14T12:02:02;14.53;;;8.93;;
20383;SDS011;46458;50.966;7.002;2022-10-14T12:04:49;14.07;;;9.43;;
20383;SDS011;46458;50.966;7.002;2022-10-14T12:07:23;12.47;;;8.90;;
20383;SDS011;46458;50.966;7.002;2022-10-14T12:09:59;13.77;;;9.37;;
20383;SDS011;46458;50.966;7.002;2022-10-14T12:12:33;11.90;;;8.70;;
20383;SDS011;46458;50.966;7.002;2022-10-14T12:15:13;15.47;;;10.47;;
20383;SDS011;46458;50.966;7.002;2022-10-14T12:17:45;11.63;;;9.07;;
20383;SDS011;46458;50.966;7.002;2022-10-14T12:20:21;13.27;;;8.90;;
20383;SDS011;46458;50.966;7.002;2022-10-14T12:22:56;12.87;;;8.90;;
20383;SDS011;46458;50.966;7.002;2022-10-14T12:25:29;13.00;;;8.93;;
20383;SDS011;46458;50.966;7.002;2022-10-14T12:28:05;16.57;;;10.93;;
20383;SDS011;46458;50.966;7.002;2022-10-14T12:30:37;15.80;;;11.07;;
20383;SDS011;46458;50.966;7.002;2022-10-14T12:33:08;18.47;;;12.10;;
20383;SDS011;46458;50.966;7.002;2022-10-14T12:35:45;20.93;;;12.80;;
20383;SDS011;46458;50.966;7.002;2022-10-14T12:38:17;13.63;;;10.00;;
20383;SDS011;46458;50.966;7.002;2022-10-14T12:40:47;15.57;;;9.73;;
20383;SDS011;46458;50.966;7.002;2022-10-14T12:43:22;13.57;;;9.37;;
20383;SDS011;46458;50.966;7.002;2022-10-14T12:45:59;14.37;;;10.23;;
20383;SDS011;46458;50.966;7.002;2022-10-14T12:48:45;13.57;;;9.57;;
20383;SDS011;46458;50.966;7.002;2022-10-14T12:51:20;10.93;;;8.93;;
20383;SDS011;46458;50.966;7.002;2022-10-14T12:56:52;12.13;;;8.90;;
20383;SDS011;46458;50.966;7.002;2022-10-14T12:59:26;11.60;;;8.37;;
20383;SDS011;46458;50.966;7.002;2022-10-14T13:01:59;12.93;;;8.53;;
20383;SDS011;46458;50.966;7.002;2022-10-14T13:04:31;12.03;;;8.27;;
20383;SDS011;46458;50.966;7.002;2022-10-14T13:16:11;12.43;;;7.63;;
20383;SDS011;46458;50.966;7.002;2022-10-14T13:25:18;9.50;;;7.40;;
20383;SDS011;46458;50.966;7.002;2022-10-14T13:27:51;10.73;;;7.70;;
20383;SDS011;46458;50.966;7.002;2022-10-14T13:30:32;12.00;;;8.63;;
20383;SDS011;46458;50.966;7.002;2022-10-14T13:33:10;10.13;;;7.73;;
20383;SDS011;46458;50.966;7.002;2022-10-14T13:35:46;9.52;;;7.28;;
20383;SDS011;46458;50.966;7.002;2022-10-14T13:38:23;15.13;;;9.20;;
20383;SDS011;46458;50.966;7.002;2022-10-14T13:40:55;13.65;;;8.40;;
20383;SDS011;46458;50.966;7.002;2022-10-14T13:43:26;10.50;;;7.23;;
20383;SDS011;46458;50.966;7.002;2022-10-14T13:46:01;14.07;;;9.00;;
20383;SDS011;46458;50.966;7.002;2022-10-14T13:48:37;11.93;;;8.57;;
20383;SDS011;46458;50.966;7.002;2022-10-14T13:51:27;9.57;;;7.43;;
20383;SDS011;46458;50.966;7.002;2022-10-14T13:54:13;13.48;;;8.38;;
20383;SDS011;46458;50.966;7.002;2022-10-14T13:56:59;11.33;;;7.60;;
20383;SDS011;46458;50.966;7.002;2022-10-14T13:59:36;9.48;;;7.15;;
20383;SDS011;46458;50.966;7.002;2022-10-14T14:02:10;8.00;;;6.30;;
20383;SDS011;46458;50.966;7.002;2022-10-14T14:04:46;7.70;;;6.40;;
20383;SDS011;46458;50.966;7.002;2022-10-14T14:07:19;9.82;;;6.00;;
20383;SDS011;46458;50.966;7.002;2022-10-14T14:09:55;10.52;;;7.00;;
20383;SDS011;46458;50.966;7.002;2022-10-14T14:12:27;9.10;;;7.17;;
20383;SDS011;46458;50.966;7.002;2022-10-14T14:14:56;8.20;;;5.77;;
20383;SDS011;46458;50.966;7.002;2022-10-14T14:17:27;8.97;;;6.93;;
20383;SDS011;46458;50.966;7.002;2022-10-14T14:20:00;8.10;;;5.90;;
20383;SDS011;46458;50.966;7.002;2022-10-14T14:22:29;7.17;;;5.30;;
20383;SDS011;46458;50.966;7.002;2022-10-14T14:25:08;8.30;;;6.17;;
20383;SDS011;46458;50.966;7.002;2022-10-14T14:27:40;7.93;;;6.07;;
20383;SDS011;46458;50.966;7.002;2022-10-14T14:30:20;10.27;;;6.60;;
20383;SDS011;46458;50.966;7.002;2022-10-14T14:32:53;10.37;;;6.47;;
20383;SDS011;46458;50.966;7.002;2022-10-14T14:35:27;9.43;;;6.30;;
20383;SDS011;46458;50.966;7.002;2022-10-14T14:37:56;10.07;;;7.18;;
20383;SDS011;46458;50.966;7.002;2022-10-14T14:40:26;9.30;;;6.10;;
20383;SDS011;46458;50.966;7.002;2022-10-14T14:42:57;11.70;;;8.30;;
20383;SDS011;46458;50.966;7.002;2022-10-14T14:45:28;13.57;;;8.20;;
20383;SDS011;46458;50.966;7.002;2022-10-14T14:48:00;11.60;;;7.80;;
20383;SDS011;46458;50.966;7.002;2022-10-14T14:50:38;13.93;;;8.20;;
20383;SDS011;46458;50.966;7.002;2022-10-14T14:53:09;12.00;;;8.57;;
20383;SDS011;46458;50.966;7.002;2022-10-14T14:55:41;12.43;;;9.52;;
20383;SDS011;46458;50.966;7.002;2022-10-14T14:58:16;14.17;;;9.00;;
20383;SDS011;46458;50.966;7.002;2022-10-14T15:00:52;10.17;;;7.17;;
20383;SDS011;46458;50.966;7.002;2022-10-14T15:03:22;11.17;;;8.50;;
20383;SDS011;46458;50.966;7.002;2022-10-14T15:05:56;12.70;;;7.78;;
20383;SDS011;46458;50.966;7.002;2022-10-14T15:08:27;9.13;;;6.73;;
20383;SDS011;46458;50.966;7.002;2022-10-14T15:11:00;8.90;;;6.87;;
20383;SDS011;46458;50.966;7.002;2022-10-14T15:13:32;14.90;;;7.57;;
20383;SDS011;46458;50.966;7.002;2022-10-14T15:16:11;10.13;;;7.68;;
20383;SDS011;46458;50.966;7.002;2022-10-14T15:18:40;10.77;;;8.75;;
20383;SDS011;46458;50.966;7.002;2022-10-14T15:21:17;12.43;;;8.47;;
20383;SDS011;46458;50.966;7.002;2022-10-14T15:23:58;10.43;;;8.17;;
20383;SDS011;46458;50.966;7.002;2022-10-14T15:26:30;13.00;;;8.60;;
20383;SDS011;46458;50.966;7.002;2022-10-14T15:29:03;11.37;;;7.50;;
20383;SDS011;46458;50.966;7.002;2022-10-14T15:31:39;8.90;;;7.15;;
20383;SDS011;46458;50.966;7.002;2022-10-14T15:34:14;8.10;;;6.57;;
20383;SDS011;46458;50.966;7.002;2022-10-14T15:36:50;15.47;;;9.30;;
20383;SDS011;46458;50.966;7.002;2022-10-14T15:39:20;11.50;;;8.93;;
20383;SDS011;46458;50.966;7.002;2022-10-14T15:41:49;9.17;;;7.03;;
20383;SDS011;46458;50.966;7.002;2022-10-14T15:44:20;10.93;;;7.35;;
20383;SDS011;46458;50.966;7.002;2022-10-14T15:46:49;11.30;;;8.82;;
20383;SDS011;46458;50.966;7.002;2022-10-14T15:49:31;10.87;;;8.03;;
20383;SDS011;46458;50.966;7.002;2022-10-14T15:52:08;13.67;;;8.77;;